createdAt,value
2022-08-01T00:00:10.981Z,19.27
2022-08-01T00:03:20.626Z,17.88
2022-08-01T00:06:32.024Z,17.88
2022-08-01T00:09:32.462Z,17.83
2022-08-01T00:12:45.072Z,15.52
2022-08-01T00:15:53.678Z,18.25
2022-08-01T00:19:13.071Z,14.25
2022-08-01T00:22:26.294Z,17.75
2022-08-01T00:25:47.859Z,16.30
2022-08-01T00:35:06.996Z,20.52
2022-08-01T00:38:14.112Z,21.08
2022-08-01T00:41:17.026Z,19.52
2022-08-01T00:44:18.370Z,18.17
2022-08-01T00:47:21.143Z,17.98
2022-08-01T00:50:34.043Z,20.02
2022-08-01T00:53:51.286Z,19.17
2022-08-01T00:57:02.112Z,18.52
2022-08-01T01:00:05.850Z,18.88
2022-08-01T01:03:16.348Z,19.85
2022-08-01T01:06:29.132Z,19.05
2022-08-01T01:09:57.022Z,17.20
2022-08-01T01:13:18.535Z,17.83
2022-08-01T01:16:35.696Z,19.15
2022-08-01T01:20:02.047Z,18.17
2022-08-01T01:23:33.148Z,18.10
2022-08-01T01:30:00.007Z,17.42
2022-08-01T01:33:12.156Z,19.25
2022-08-01T01:36:17.518Z,17.52
2022-08-01T01:39:32.235Z,17.20
2022-08-01T01:42:38.217Z,16.95
2022-08-01T01:45:49.931Z,17.35
2022-08-01T01:48:55.902Z,17.27
2022-08-01T01:52:08.512Z,17.17
2022-08-01T01:55:15.253Z,15.77
2022-08-01T01:58:23.977Z,17.65
2022-08-01T02:01:57.999Z,16.75
2022-08-01T02:05:01.807Z,18.52
2022-08-01T02:08:11.064Z,17.48
2022-08-01T02:11:21.901Z,16.45
2022-08-01T02:17:47.579Z,13.25
2022-08-01T02:20:59.115Z,13.85
2022-08-01T02:24:09.801Z,14.95
2022-08-01T02:27:27.872Z,13.90
2022-08-01T02:30:35.291Z,14.57
2022-08-01T02:33:50.975Z,15.27
2022-08-01T02:36:55.036Z,15.88
2022-08-01T02:40:10.213Z,12.82
2022-08-01T02:43:28.236Z,14.88
2022-08-01T02:46:41.428Z,14.85
2022-08-01T02:49:54.132Z,14.32
2022-08-01T02:53:02.541Z,13.73
2022-08-01T02:56:11.220Z,13.80
2022-08-01T02:59:15.943Z,14.20
2022-08-01T03:02:31.599Z,15.15
2022-08-01T03:05:36.535Z,12.82
2022-08-01T03:08:51.774Z,12.40
2022-08-01T03:11:56.838Z,13.27
2022-08-01T03:15:10.374Z,13.40
2022-08-01T03:18:22.548Z,13.18
2022-08-01T03:21:30.957Z,13.68
2022-08-01T03:24:40.448Z,13.63
2022-08-01T03:27:44.348Z,11.63
2022-08-01T03:31:07.136Z,13.10
2022-08-01T03:34:10.669Z,13.32
2022-08-01T03:37:29.784Z,14.10
2022-08-01T03:40:44.546Z,12.38
2022-08-01T03:43:49.171Z,12.52
2022-08-01T03:46:51.596Z,12.93
2022-08-01T03:50:01.499Z,11.32
2022-08-01T03:53:07.064Z,10.63
2022-08-01T03:56:25.023Z,9.32
2022-08-01T03:59:27.609Z,9.57
2022-08-01T04:02:45.206Z,10.20
2022-08-01T04:05:49.393Z,8.80
2022-08-01T04:09:10.161Z,8.80
2022-08-01T04:12:29.401Z,9.30
2022-08-01T04:15:32.836Z,8.43
2022-08-01T04:25:50.390Z,6.80
2022-08-01T04:29:11.951Z,6.85
2022-08-01T04:32:27.166Z,7.38
2022-08-01T04:36:01.942Z,6.25
2022-08-01T04:39:19.374Z,7.05
2022-08-01T04:43:00.891Z,6.35
2022-08-01T04:49:50.871Z,5.95
2022-08-01T04:52:59.319Z,5.95
2022-08-01T04:56:19.628Z,6.65
2022-08-01T04:59:47.331Z,6.22
2022-08-01T05:02:48.487Z,6.35
2022-08-01T05:06:02.063Z,5.45
2022-08-01T05:09:03.999Z,5.75
2022-08-01T05:12:11.096Z,4.30
2022-08-01T05:15:25.676Z,3.65
2022-08-01T05:18:28.838Z,3.70
2022-08-01T05:21:39.285Z,2.95
2022-08-01T05:24:42.041Z,2.83
2022-08-01T05:28:19.092Z,2.92
2022-08-01T05:31:52.520Z,2.63
2022-08-01T05:35:03.807Z,2.50
2022-08-01T05:38:26.247Z,3.10
2022-08-01T05:41:52.086Z,2.90
2022-08-01T05:46:02.752Z,3.03
2022-08-01T05:50:20.631Z,3.50
2022-08-01T05:53:26.307Z,3.28
2022-08-01T05:56:34.344Z,3.78
2022-08-01T05:59:39.101Z,2.72
2022-08-01T06:02:52.391Z,2.97
2022-08-01T06:18:45.214Z,3.00
2022-08-01T06:21:49.878Z,3.10
2022-08-01T06:25:41.586Z,3.50
2022-08-01T06:41:25.066Z,4.18
2022-08-01T06:44:28.227Z,4.60
2022-08-01T06:47:40.609Z,4.32
2022-08-01T06:56:07.872Z,4.72
2022-08-01T07:08:36.393Z,5.82
2022-08-01T07:11:53.432Z,4.90
2022-08-01T07:15:31.986Z,5.10
2022-08-01T07:24:28.921Z,5.55
2022-08-01T07:36:35.718Z,5.32
2022-08-01T07:56:55.212Z,4.03
2022-08-01T08:01:17.322Z,4.07
2022-08-01T08:33:43.206Z,3.20
2022-08-01T08:37:39.240Z,3.63
2022-08-01T08:49:56.066Z,2.90
2022-08-01T08:57:48.137Z,2.20
2022-08-01T09:00:53.957Z,2.42
2022-08-01T09:04:02.580Z,2.33
2022-08-01T09:07:08.012Z,2.20
2022-08-01T09:10:22.063Z,2.60
2022-08-01T09:13:23.149Z,2.30
2022-08-01T09:24:01.755Z,2.30
2022-08-01T09:27:06.830Z,2.53
2022-08-01T09:30:57.334Z,1.95
2022-08-01T09:34:15.555Z,2.45
2022-08-01T09:37:24.242Z,2.22
2022-08-01T09:40:35.158Z,2.67
2022-08-01T09:43:37.707Z,2.15
2022-08-01T09:47:16.145Z,2.90
2022-08-01T09:50:24.456Z,2.33
2022-08-01T09:53:32.856Z,2.35
2022-08-01T09:56:49.589Z,2.10
2022-08-01T10:03:33.940Z,2.30
2022-08-01T10:06:37.261Z,2.08
2022-08-01T10:09:57.524Z,2.85
2022-08-01T10:13:06.903Z,2.60
2022-08-01T10:17:04.971Z,2.67
2022-08-01T10:20:29.890Z,2.47
2022-08-01T10:23:52.719Z,2.30
2022-08-01T10:27:24.240Z,1.92
2022-08-01T10:30:41.005Z,2.30
2022-08-01T10:33:59.879Z,2.72
2022-08-01T10:37:10.065Z,2.90
2022-08-01T10:40:29.856Z,2.13
2022-08-01T10:43:46.921Z,2.20
2022-08-01T11:16:05.735Z,2.03
2022-08-01T11:36:58.996Z,1.80
2022-08-01T12:01:58.001Z,2.10
2022-08-01T12:05:43.066Z,2.00
2022-08-01T12:09:00.187Z,1.60
2022-08-01T12:12:48.437Z,2.10
2022-08-01T12:16:29.039Z,1.58
2022-08-01T12:20:03.322Z,1.83
2022-08-01T12:23:28.456Z,1.70
2022-08-01T12:38:34.998Z,2.10
2022-08-01T12:41:46.567Z,1.73
2022-08-01T12:45:33.914Z,1.98
2022-08-01T12:48:43.766Z,2.10
2022-08-01T12:51:57.504Z,1.90
2022-08-01T12:55:33.963Z,1.45
2022-08-01T14:01:55.183Z,1.52
2022-08-01T14:05:50.275Z,1.58
2022-08-01T14:10:19.849Z,1.38
2022-08-01T14:27:05.294Z,1.70
2022-08-01T14:30:52.631Z,1.33
2022-08-01T14:34:34.242Z,1.50
2022-08-01T14:37:57.788Z,1.95
2022-08-01T14:44:33.356Z,2.00
2022-08-01T14:48:27.481Z,1.40
2022-08-01T14:52:02.805Z,2.00
2022-08-01T14:55:11.594Z,2.60
2022-08-01T14:58:22.400Z,1.90
2022-08-01T15:01:59.646Z,2.38
2022-08-01T15:05:19.135Z,2.78
2022-08-01T15:08:55.974Z,2.22
2022-08-01T15:12:16.381Z,1.90
2022-08-01T15:15:29.462Z,2.45
2022-08-01T15:18:50.594Z,2.17
2022-08-01T15:30:53.633Z,2.33
2022-08-01T15:34:43.011Z,2.35
2022-08-01T15:37:52.629Z,1.83
2022-08-01T15:52:23.122Z,2.30
2022-08-01T16:04:31.146Z,2.65
2022-08-01T16:08:21.056Z,2.85
2022-08-01T16:24:22.100Z,2.38
2022-08-01T16:27:35.061Z,2.72
2022-08-01T16:30:48.684Z,2.30
2022-08-01T16:34:16.046Z,2.20
2022-08-01T16:37:18.574Z,2.47
2022-08-01T16:40:34.915Z,2.47
2022-08-01T16:43:55.928Z,2.60
2022-08-01T16:47:10.929Z,2.38
2022-08-01T16:50:28.649Z,2.42
2022-08-01T16:53:46.605Z,2.55
2022-08-01T16:56:52.049Z,2.33
2022-08-01T17:00:21.376Z,2.72
2022-08-01T17:03:51.332Z,2.13
2022-08-01T17:06:54.141Z,2.63
2022-08-01T17:10:04.810Z,2.22
2022-08-01T17:13:33.208Z,3.05
2022-08-01T17:20:22.702Z,2.33
2022-08-01T17:27:07.178Z,2.00
2022-08-01T17:30:15.310Z,2.22
2022-08-01T17:33:44.523Z,2.50
2022-08-01T17:36:51.110Z,2.43
2022-08-01T17:40:03.370Z,2.08
2022-08-01T17:43:06.272Z,1.77
2022-08-01T17:46:18.381Z,2.60
2022-08-01T17:49:52.248Z,2.50
2022-08-01T17:52:54.369Z,2.00
2022-08-01T17:55:57.775Z,2.05
2022-08-01T17:59:05.205Z,2.13
2022-08-01T18:02:06.311Z,2.20
2022-08-01T18:05:19.205Z,2.30
2022-08-01T18:08:27.258Z,1.90
2022-08-01T18:11:37.369Z,2.15
2022-08-01T18:14:40.724Z,2.50
2022-08-01T18:17:52.074Z,2.30
2022-08-01T18:20:55.409Z,2.50
2022-08-01T18:24:30.332Z,2.45
2022-08-01T18:28:30.723Z,1.85
2022-08-01T18:31:01.610Z,2.00
2022-08-01T18:34:04.686Z,2.38
2022-08-01T18:37:14.887Z,2.13
2022-08-01T18:40:22.369Z,2.45
2022-08-01T18:43:42.014Z,2.17
2022-08-01T18:46:44.943Z,2.92
2022-08-01T18:49:52.665Z,2.70
2022-08-01T18:52:57.477Z,2.35
2022-08-01T18:56:04.413Z,2.47
2022-08-01T18:59:08.271Z,3.20
2022-08-01T19:02:16.460Z,2.90
2022-08-01T19:05:16.820Z,2.80
2022-08-01T19:08:34.287Z,2.05
2022-08-01T19:11:36.350Z,2.60
2022-08-01T19:14:44.325Z,2.35
2022-08-01T19:17:45.600Z,2.33
2022-08-01T19:20:59.105Z,2.50
2022-08-01T19:24:23.612Z,2.70
2022-08-01T19:27:52.050Z,2.75
2022-08-01T19:30:55.494Z,2.92
2022-08-01T19:34:03.936Z,2.53
2022-08-01T19:37:08.086Z,2.25
2022-08-01T19:40:27.209Z,2.42
2022-08-01T19:43:39.032Z,2.50
2022-08-01T19:46:55.060Z,2.65
2022-08-01T19:50:01.389Z,2.80
2022-08-01T19:53:11.331Z,2.47
2022-08-01T19:56:16.920Z,2.47
2022-08-01T19:59:34.361Z,2.50
2022-08-01T20:02:42.108Z,2.95
2022-08-01T20:06:09.323Z,2.30
2022-08-01T20:09:13.276Z,2.42
2022-08-01T20:12:31.277Z,2.20
2022-08-01T20:19:09.570Z,2.45
2022-08-01T20:22:25.260Z,2.70
2022-08-01T20:32:50.215Z,2.03
2022-08-01T20:35:52.281Z,2.53
2022-08-01T20:39:08.818Z,2.70
2022-08-01T20:42:21.927Z,2.35
2022-08-01T20:45:51.168Z,3.33
2022-08-01T20:49:16.983Z,2.25
2022-08-01T20:52:27.466Z,2.40
2022-08-01T20:55:27.801Z,2.15
2022-08-01T20:58:48.366Z,2.90
2022-08-01T21:01:57.577Z,1.98
2022-08-01T21:05:09.442Z,2.75
2022-08-01T21:08:12.285Z,2.40
2022-08-01T21:11:24.497Z,3.00
2022-08-01T21:19:29.071Z,2.42
2022-08-01T21:22:55.922Z,2.80
2022-08-01T21:26:05.562Z,2.40
2022-08-01T21:29:21.619Z,2.40
2022-08-01T21:32:32.697Z,2.70
2022-08-01T21:35:35.325Z,2.88
2022-08-01T21:38:47.191Z,2.38
2022-08-01T21:45:21.312Z,2.37
2022-08-01T21:48:26.949Z,3.88
2022-08-01T21:51:57.376Z,2.60
2022-08-01T21:55:10.707Z,2.58
2022-08-01T21:58:33.579Z,3.03
2022-08-01T22:01:52.720Z,2.55
2022-08-01T22:05:07.941Z,3.15
2022-08-01T22:08:31.472Z,2.70
2022-08-01T22:12:01.331Z,3.47
2022-08-01T22:15:07.077Z,2.50
2022-08-01T22:18:19.454Z,3.10
2022-08-01T22:21:28.337Z,2.47
2022-08-01T22:24:36.208Z,2.90
2022-08-01T22:28:03.279Z,2.97
2022-08-01T22:31:09.084Z,2.53
2022-08-01T22:34:16.618Z,2.78
2022-08-01T22:37:57.387Z,2.92
2022-08-01T22:41:03.255Z,2.90
2022-08-01T22:44:13.318Z,2.65
2022-08-01T22:47:32.206Z,2.60
2022-08-01T22:50:43.038Z,3.15
2022-08-01T22:53:50.824Z,2.72
2022-08-01T22:57:07.139Z,2.92
2022-08-01T23:00:21.834Z,2.95
2022-08-01T23:03:36.282Z,2.50
2022-08-01T23:06:46.851Z,2.97
2022-08-01T23:09:55.405Z,2.53
2022-08-01T23:12:58.850Z,3.30
2022-08-01T23:16:28.182Z,2.83
2022-08-01T23:19:29.845Z,3.05
2022-08-01T23:22:41.236Z,3.67
2022-08-01T23:25:44.245Z,2.70
2022-08-01T23:28:56.335Z,2.67
2022-08-01T23:35:12.136Z,2.85
2022-08-01T23:38:14.236Z,3.53
2022-08-01T23:41:27.055Z,3.08
2022-08-01T23:44:30.426Z,3.20
2022-08-01T23:47:36.081Z,3.75
2022-08-01T23:50:36.538Z,4.38
2022-08-01T23:53:46.042Z,3.28
2022-08-01T23:56:54.500Z,3.00
